sensor_id;sensor_type;location;lat;lon;timestamp;temperature;humidity
1107;DHT22;540;49.448;8.612;2023-12-28T00:01:40;7.30;97.50
1107;DHT22;540;49.448;8.612;2023-12-28T00:04:08;7.30;97.00
1107;DHT22;540;49.448;8.612;2023-12-28T00:06:36;7.10;97.00
1107;DHT22;540;49.448;8.612;2023-12-28T00:09:04;7.50;96.80
1107;DHT22;540;49.448;8.612;2023-12-28T00:11:39;7.30;96.50
1107;DHT22;540;49.448;8.612;2023-12-28T00:14:07;7.50;96.70
1107;DHT22;540;49.448;8.612;2023-12-28T00:16:35;7.40;96.20
1107;DHT22;540;49.448;8.612;2023-12-28T00:19:04;7.20;96.50
1107;DHT22;540;49.448;8.612;2023-12-28T00:21:32;7.30;96.70
1107;DHT22;540;49.448;8.612;2023-12-28T00:24:00;7.30;97.00
1107;DHT22;540;49.448;8.612;2023-12-28T00:26:27;7.30;97.10
1107;DHT22;540;49.448;8.612;2023-12-28T00:28:58;7.40;97.30
1107;DHT22;540;49.448;8.612;2023-12-28T00:31:26;7.30;97.40
1107;DHT22;540;49.448;8.612;2023-12-28T00:33:54;7.30;97.50
1107;DHT22;540;49.448;8.612;2023-12-28T00:36:22;7.00;97.10
1107;DHT22;540;49.448;8.612;2023-12-28T00:38:50;7.10;97.20
1107;DHT22;540;49.448;8.612;2023-12-28T00:41:18;7.30;97.20
1107;DHT22;540;49.448;8.612;2023-12-28T00:43:46;7.20;97.70
1107;DHT22;540;49.448;8.612;2023-12-28T00:46:15;7.00;97.30
1107;DHT22;540;49.448;8.612;2023-12-28T00:48:43;7.10;97.40
1107;DHT22;540;49.448;8.612;2023-12-28T00:51:11;7.10;97.80
1107;DHT22;540;49.448;8.612;2023-12-28T00:53:39;7.00;97.70
1107;DHT22;540;49.448;8.612;2023-12-28T00:56:07;7.10;97.70
1107;DHT22;540;49.448;8.612;2023-12-28T00:58:35;7.20;97.90
1107;DHT22;540;49.448;8.612;2023-12-28T01:01:03;7.10;97.80
1107;DHT22;540;49.448;8.612;2023-12-28T01:03:32;7.10;97.90
1107;DHT22;540;49.448;8.612;2023-12-28T01:06:00;7.00;98.30
1107;DHT22;540;49.448;8.612;2023-12-28T01:08:28;6.90;98.90
1107;DHT22;540;49.448;8.612;2023-12-28T01:10:56;6.80;99.70
1107;DHT22;540;49.448;8.612;2023-12-28T01:13:24;6.80;99.60
1107;DHT22;540;49.448;8.612;2023-12-28T01:15:51;6.70;99.90
1107;DHT22;540;49.448;8.612;2023-12-28T01:18:23;6.70;99.90
1107;DHT22;540;49.448;8.612;2023-12-28T01:20:52;6.80;99.90
1107;DHT22;540;49.448;8.612;2023-12-28T01:23:20;6.80;99.90
1107;DHT22;540;49.448;8.612;2023-12-28T01:25:48;6.70;99.90
1107;DHT22;540;49.448;8.612;2023-12-28T01:28:16;7.00;99.90
1107;DHT22;540;49.448;8.612;2023-12-28T01:30:44;6.80;99.90
1107;DHT22;540;49.448;8.612;2023-12-28T01:33:13;6.70;99.90
1107;DHT22;540;49.448;8.612;2023-12-28T01:35:41;6.60;99.90
1107;DHT22;540;49.448;8.612;2023-12-28T01:38:10;6.80;99.90
1107;DHT22;540;49.448;8.612;2023-12-28T01:40:44;6.80;99.90
1107;DHT22;540;49.448;8.612;2023-12-28T01:43:12;6.80;99.90
1107;DHT22;540;49.448;8.612;2023-12-28T01:45:40;7.00;99.90
1107;DHT22;540;49.448;8.612;2023-12-28T01:48:08;6.80;99.60
1107;DHT22;540;49.448;8.612;2023-12-28T01:50:37;6.70;99.30
1107;DHT22;540;49.448;8.612;2023-12-28T01:53:06;7.00;99.10
1107;DHT22;540;49.448;8.612;2023-12-28T01:55:36;6.90;99.00
1107;DHT22;540;49.448;8.612;2023-12-28T01:58:04;7.10;98.20
1107;DHT22;540;49.448;8.612;2023-12-28T02:00:32;7.20;97.70
1107;DHT22;540;49.448;8.612;2023-12-28T02:03:04;7.20;97.30
1107;DHT22;540;49.448;8.612;2023-12-28T02:05:33;7.00;96.70
1107;DHT22;540;49.448;8.612;2023-12-28T02:08:02;7.20;96.40
1107;DHT22;540;49.448;8.612;2023-12-28T02:10:30;7.30;96.30
1107;DHT22;540;49.448;8.612;2023-12-28T02:12:59;7.30;95.80
1107;DHT22;540;49.448;8.612;2023-12-28T02:15:27;7.40;95.40
1107;DHT22;540;49.448;8.612;2023-12-28T02:17:58;7.50;95.10
1107;DHT22;540;49.448;8.612;2023-12-28T02:20:29;7.70;95.00
1107;DHT22;540;49.448;8.612;2023-12-28T02:22:57;7.70;94.20
1107;DHT22;540;49.448;8.612;2023-12-28T02:25:27;7.80;94.60
1107;DHT22;540;49.448;8.612;2023-12-28T02:27:55;7.60;93.80
1107;DHT22;540;49.448;8.612;2023-12-28T02:30:23;7.70;93.60
1107;DHT22;540;49.448;8.612;2023-12-28T02:32:56;7.90;93.50
1107;DHT22;540;49.448;8.612;2023-12-28T02:35:32;7.90;92.90
1107;DHT22;540;49.448;8.612;2023-12-28T02:38:03;8.00;92.70
1107;DHT22;540;49.448;8.612;2023-12-28T02:40:36;8.20;92.50
1107;DHT22;540;49.448;8.612;2023-12-28T02:43:05;8.10;92.40
1107;DHT22;540;49.448;8.612;2023-12-28T02:45:33;8.10;91.90
1107;DHT22;540;49.448;8.612;2023-12-28T02:48:01;8.20;91.70
1107;DHT22;540;49.448;8.612;2023-12-28T02:50:30;8.40;91.70
1107;DHT22;540;49.448;8.612;2023-12-28T02:52:58;8.50;91.50
1107;DHT22;540;49.448;8.612;2023-12-28T02:55:26;8.30;91.40
1107;DHT22;540;49.448;8.612;2023-12-28T02:57:57;8.50;91.80
1107;DHT22;540;49.448;8.612;2023-12-28T03:00:28;8.30;91.40
1107;DHT22;540;49.448;8.612;2023-12-28T03:02:56;8.30;91.70
1107;DHT22;540;49.448;8.612;2023-12-28T03:05:24;8.50;91.50
1107;DHT22;540;49.448;8.612;2023-12-28T03:07:52;8.40;91.90
1107;DHT22;540;49.448;8.612;2023-12-28T03:10:22;8.70;91.70
1107;DHT22;540;49.448;8.612;2023-12-28T03:12:50;8.50;91.60
1107;DHT22;540;49.448;8.612;2023-12-28T03:15:19;8.40;91.30
1107;DHT22;540;49.448;8.612;2023-12-28T03:17:47;8.50;91.20
1107;DHT22;540;49.448;8.612;2023-12-28T03:20:15;8.60;90.90
1107;DHT22;540;49.448;8.612;2023-12-28T03:22:43;8.70;91.00
1107;DHT22;540;49.448;8.612;2023-12-28T03:25:11;8.60;90.60
1107;DHT22;540;49.448;8.612;2023-12-28T03:27:38;8.80;90.50
1107;DHT22;540;49.448;8.612;2023-12-28T03:30:07;8.70;90.40
1107;DHT22;540;49.448;8.612;2023-12-28T03:32:37;8.60;90.60
1107;DHT22;540;49.448;8.612;2023-12-28T03:35:05;8.70;91.10
1107;DHT22;540;49.448;8.612;2023-12-28T03:37:34;8.80;91.30
1107;DHT22;540;49.448;8.612;2023-12-28T03:40:02;8.70;91.70
1107;DHT22;540;49.448;8.612;2023-12-28T03:42:30;8.70;91.70
1107;DHT22;540;49.448;8.612;2023-12-28T03:44:58;8.70;91.70
1107;DHT22;540;49.448;8.612;2023-12-28T03:47:26;8.80;91.80
1107;DHT22;540;49.448;8.612;2023-12-28T03:49:55;8.70;91.40
1107;DHT22;540;49.448;8.612;2023-12-28T03:52:26;8.90;91.70
1107;DHT22;540;49.448;8.612;2023-12-28T03:54:55;9.00;90.80
1107;DHT22;540;49.448;8.612;2023-12-28T03:57:23;8.60;90.40
1107;DHT22;540;49.448;8.612;2023-12-28T03:59:51;8.80;90.10
1107;DHT22;540;49.448;8.612;2023-12-28T04:02:20;8.80;90.30
1107;DHT22;540;49.448;8.612;2023-12-28T04:04:48;9.00;90.20
1107;DHT22;540;49.448;8.612;2023-12-28T04:07:17;9.00;90.30
1107;DHT22;540;49.448;8.612;2023-12-28T04:09:45;9.00;90.30
1107;DHT22;540;49.448;8.612;2023-12-28T04:12:13;9.10;89.90
1107;DHT22;540;49.448;8.612;2023-12-28T04:14:41;9.30;89.60
1107;DHT22;540;49.448;8.612;2023-12-28T04:17:08;9.30;88.50
1107;DHT22;540;49.448;8.612;2023-12-28T04:19:36;9.10;87.50
1107;DHT22;540;49.448;8.612;2023-12-28T04:22:04;9.20;87.50
1107;DHT22;540;49.448;8.612;2023-12-28T04:24:33;9.30;87.20
1107;DHT22;540;49.448;8.612;2023-12-28T04:27:01;9.50;88.00
1107;DHT22;540;49.448;8.612;2023-12-28T04:29:29;9.10;87.50
1107;DHT22;540;49.448;8.612;2023-12-28T04:31:57;9.30;88.00
1107;DHT22;540;49.448;8.612;2023-12-28T04:34:25;9.30;88.20
1107;DHT22;540;49.448;8.612;2023-12-28T04:36:53;9.60;90.10
1107;DHT22;540;49.448;8.612;2023-12-28T04:39:21;9.30;90.10
1107;DHT22;540;49.448;8.612;2023-12-28T04:41:50;9.50;90.20
1107;DHT22;540;49.448;8.612;2023-12-28T04:44:18;9.60;90.40
1107;DHT22;540;49.448;8.612;2023-12-28T04:46:45;9.30;90.60
1107;DHT22;540;49.448;8.612;2023-12-28T04:49:13;9.30;91.00
1107;DHT22;540;49.448;8.612;2023-12-28T04:51:44;9.60;91.50
1107;DHT22;540;49.448;8.612;2023-12-28T04:54:12;9.60;91.80
1107;DHT22;540;49.448;8.612;2023-12-28T04:56:40;9.70;92.40
1107;DHT22;540;49.448;8.612;2023-12-28T04:59:09;9.90;93.40
1107;DHT22;540;49.448;8.612;2023-12-28T05:01:40;9.80;94.80
1107;DHT22;540;49.448;8.612;2023-12-28T05:04:08;9.80;97.00
1107;DHT22;540;49.448;8.612;2023-12-28T05:06:42;10.00;97.60
1107;DHT22;540;49.448;8.612;2023-12-28T05:09:10;10.00;99.10
1107;DHT22;540;49.448;8.612;2023-12-28T05:11:37;10.20;99.90
1107;DHT22;540;49.448;8.612;2023-12-28T05:14:05;10.00;99.90
1107;DHT22;540;49.448;8.612;2023-12-28T05:16:37;10.10;99.90
1107;DHT22;540;49.448;8.612;2023-12-28T05:19:06;10.20;99.90
1107;DHT22;540;49.448;8.612;2023-12-28T05:21:34;10.20;99.90
1107;DHT22;540;49.448;8.612;2023-12-28T05:24:02;10.20;99.90
1107;DHT22;540;49.448;8.612;2023-12-28T05:26:29;10.00;99.90
1107;DHT22;540;49.448;8.612;2023-12-28T05:28:57;9.90;99.90
1107;DHT22;540;49.448;8.612;2023-12-28T05:31:25;10.20;99.90
1107;DHT22;540;49.448;8.612;2023-12-28T05:33:54;10.00;99.90
1107;DHT22;540;49.448;8.612;2023-12-28T05:36:23;9.90;99.90
1107;DHT22;540;49.448;8.612;2023-12-28T05:38:51;9.70;99.90
1107;DHT22;540;49.448;8.612;2023-12-28T05:41:19;9.80;99.90
1107;DHT22;540;49.448;8.612;2023-12-28T05:43:47;9.80;99.90
1107;DHT22;540;49.448;8.612;2023-12-28T05:46:15;9.90;99.90
1107;DHT22;540;49.448;8.612;2023-12-28T05:48:43;9.70;99.90
1107;DHT22;540;49.448;8.612;2023-12-28T05:51:12;10.10;99.90
1107;DHT22;540;49.448;8.612;2023-12-28T05:53:40;9.80;99.90
1107;DHT22;540;49.448;8.612;2023-12-28T05:56:08;9.90;99.90
1107;DHT22;540;49.448;8.612;2023-12-28T05:58:36;9.80;99.90
1107;DHT22;540;49.448;8.612;2023-12-28T06:01:05;9.90;99.90
1107;DHT22;540;49.448;8.612;2023-12-28T06:03:33;9.80;99.90
1107;DHT22;540;49.448;8.612;2023-12-28T06:06:01;10.10;99.90
1107;DHT22;540;49.448;8.612;2023-12-28T06:08:30;9.90;99.90
1107;DHT22;540;49.448;8.612;2023-12-28T06:10:58;10.10;99.90
1107;DHT22;540;49.448;8.612;2023-12-28T06:13:26;9.80;99.90
1107;DHT22;540;49.448;8.612;2023-12-28T06:15:54;9.80;99.90
1107;DHT22;540;49.448;8.612;2023-12-28T06:18:22;9.90;99.90
1107;DHT22;540;49.448;8.612;2023-12-28T06:20:50;9.90;99.90
1107;DHT22;540;49.448;8.612;2023-12-28T06:23:18;9.90;99.90
1107;DHT22;540;49.448;8.612;2023-12-28T06:25:47;9.90;99.90
1107;DHT22;540;49.448;8.612;2023-12-28T06:28:16;10.00;99.90
1107;DHT22;540;49.448;8.612;2023-12-28T06:30:44;9.90;99.90
1107;DHT22;540;49.448;8.612;2023-12-28T06:33:12;9.90;99.90
1107;DHT22;540;49.448;8.612;2023-12-28T06:35:40;10.10;99.90
1107;DHT22;540;49.448;8.612;2023-12-28T06:38:08;10.00;99.90
1107;DHT22;540;49.448;8.612;2023-12-28T06:40:36;10.00;99.90
1107;DHT22;540;49.448;8.612;2023-12-28T06:43:05;10.00;99.90
1107;DHT22;540;49.448;8.612;2023-12-28T06:45:33;10.30;99.90
1107;DHT22;540;49.448;8.612;2023-12-28T06:48:01;10.00;99.90
1107;DHT22;540;49.448;8.612;2023-12-28T06:50:29;10.20;99.90
1107;DHT22;540;49.448;8.612;2023-12-28T06:52:57;10.40;99.90
1107;DHT22;540;49.448;8.612;2023-12-28T06:55:25;10.10;99.90
1107;DHT22;540;49.448;8.612;2023-12-28T06:57:53;10.00;99.90
1107;DHT22;540;49.448;8.612;2023-12-28T07:00:22;10.00;99.90
1107;DHT22;540;49.448;8.612;2023-12-28T07:02:50;10.00;99.90
1107;DHT22;540;49.448;8.612;2023-12-28T07:05:17;10.30;99.90
1107;DHT22;540;49.448;8.612;2023-12-28T07:07:45;10.10;99.90
1107;DHT22;540;49.448;8.612;2023-12-28T07:10:16;10.40;99.90
1107;DHT22;540;49.448;8.612;2023-12-28T07:12:44;10.20;99.90
1107;DHT22;540;49.448;8.612;2023-12-28T07:15:12;10.50;99.90
1107;DHT22;540;49.448;8.612;2023-12-28T07:17:42;10.20;99.90
1107;DHT22;540;49.448;8.612;2023-12-28T07:20:11;10.10;99.90
1107;DHT22;540;49.448;8.612;2023-12-28T07:22:39;10.30;99.90
1107;DHT22;540;49.448;8.612;2023-12-28T07:25:08;10.40;99.90
1107;DHT22;540;49.448;8.612;2023-12-28T07:27:36;10.10;99.90
1107;DHT22;540;49.448;8.612;2023-12-28T07:30:05;10.20;99.90
1107;DHT22;540;49.448;8.612;2023-12-28T07:32:34;10.20;99.90
1107;DHT22;540;49.448;8.612;2023-12-28T07:35:04;10.30;99.90
1107;DHT22;540;49.448;8.612;2023-12-28T07:37:32;10.00;99.90
1107;DHT22;540;49.448;8.612;2023-12-28T07:40:00;10.10;99.90
1107;DHT22;540;49.448;8.612;2023-12-28T07:42:28;10.00;99.90
1107;DHT22;540;49.448;8.612;2023-12-28T07:44:56;10.30;99.90
1107;DHT22;540;49.448;8.612;2023-12-28T07:47:24;10.20;99.90
1107;DHT22;540;49.448;8.612;2023-12-28T07:49:52;10.10;99.90
1107;DHT22;540;49.448;8.612;2023-12-28T07:52:21;10.20;99.90
1107;DHT22;540;49.448;8.612;2023-12-28T07:54:49;10.40;99.90
1107;DHT22;540;49.448;8.612;2023-12-28T07:57:17;10.20;99.90
1107;DHT22;540;49.448;8.612;2023-12-28T07:59:45;10.00;99.90
1107;DHT22;540;49.448;8.612;2023-12-28T08:02:13;10.50;99.90
1107;DHT22;540;49.448;8.612;2023-12-28T08:04:43;10.20;99.90
1107;DHT22;540;49.448;8.612;2023-12-28T08:07:11;10.30;99.90
1107;DHT22;540;49.448;8.612;2023-12-28T08:09:40;10.20;99.90
1107;DHT22;540;49.448;8.612;2023-12-28T08:12:08;10.50;99.90
1107;DHT22;540;49.448;8.612;2023-12-28T08:14:36;10.20;99.90
1107;DHT22;540;49.448;8.612;2023-12-28T08:17:04;10.40;99.90
1107;DHT22;540;49.448;8.612;2023-12-28T08:19:34;10.30;99.90
1107;DHT22;540;49.448;8.612;2023-12-28T08:22:02;10.30;99.90
1107;DHT22;540;49.448;8.612;2023-12-28T08:24:30;10.40;99.90
1107;DHT22;540;49.448;8.612;2023-12-28T08:27:00;10.40;99.90
1107;DHT22;540;49.448;8.612;2023-12-28T08:29:28;10.40;99.90
1107;DHT22;540;49.448;8.612;2023-12-28T08:31:56;10.30;99.90
1107;DHT22;540;49.448;8.612;2023-12-28T08:34:24;10.30;99.90
1107;DHT22;540;49.448;8.612;2023-12-28T08:36:52;10.60;99.90
1107;DHT22;540;49.448;8.612;2023-12-28T08:39:20;10.50;99.90
1107;DHT22;540;49.448;8.612;2023-12-28T08:41:48;10.80;99.90
1107;DHT22;540;49.448;8.612;2023-12-28T08:44:18;10.50;99.90
1107;DHT22;540;49.448;8.612;2023-12-28T08:46:45;10.40;99.90
1107;DHT22;540;49.448;8.612;2023-12-28T08:49:14;10.40;99.90
1107;DHT22;540;49.448;8.612;2023-12-28T08:51:43;10.80;99.90
1107;DHT22;540;49.448;8.612;2023-12-28T08:54:11;10.50;99.90
1107;DHT22;540;49.448;8.612;2023-12-28T08:56:39;10.70;99.90
1107;DHT22;540;49.448;8.612;2023-12-28T08:59:06;10.50;99.90
1107;DHT22;540;49.448;8.612;2023-12-28T09:01:36;10.60;99.90
1107;DHT22;540;49.448;8.612;2023-12-28T09:04:04;10.90;99.90
1107;DHT22;540;49.448;8.612;2023-12-28T09:06:33;10.70;99.90
1107;DHT22;540;49.448;8.612;2023-12-28T09:09:03;10.90;99.90
1107;DHT22;540;49.448;8.612;2023-12-28T09:11:33;11.00;99.90
1107;DHT22;540;49.448;8.612;2023-12-28T09:14:02;11.00;99.90
1107;DHT22;540;49.448;8.612;2023-12-28T09:16:32;10.90;99.90
1107;DHT22;540;49.448;8.612;2023-12-28T09:19:02;11.00;99.90
1107;DHT22;540;49.448;8.612;2023-12-28T09:21:31;11.10;99.90
1107;DHT22;540;49.448;8.612;2023-12-28T09:24:00;11.00;99.90
1107;DHT22;540;49.448;8.612;2023-12-28T09:26:29;11.00;99.90
1107;DHT22;540;49.448;8.612;2023-12-28T09:28:59;10.70;99.90
1107;DHT22;540;49.448;8.612;2023-12-28T09:31:28;10.80;99.90
1107;DHT22;540;49.448;8.612;2023-12-28T09:33:58;10.60;99.90
1107;DHT22;540;49.448;8.612;2023-12-28T09:36:29;10.90;99.90
1107;DHT22;540;49.448;8.612;2023-12-28T09:38:57;10.80;99.90
1107;DHT22;540;49.448;8.612;2023-12-28T09:41:26;10.80;99.90
1107;DHT22;540;49.448;8.612;2023-12-28T09:43:57;10.70;99.90
1107;DHT22;540;49.448;8.612;2023-12-28T09:46:26;10.80;99.90
1107;DHT22;540;49.448;8.612;2023-12-28T09:48:54;10.90;99.90
1107;DHT22;540;49.448;8.612;2023-12-28T09:51:24;11.00;99.90
1107;DHT22;540;49.448;8.612;2023-12-28T09:53:56;11.00;99.90
1107;DHT22;540;49.448;8.612;2023-12-28T09:56:24;11.00;99.90
1107;DHT22;540;49.448;8.612;2023-12-28T09:58:57;10.80;99.90
1107;DHT22;540;49.448;8.612;2023-12-28T10:01:25;10.70;99.90
1107;DHT22;540;49.448;8.612;2023-12-28T10:03:53;10.50;99.90
1107;DHT22;540;49.448;8.612;2023-12-28T10:06:21;10.40;99.90
1107;DHT22;540;49.448;8.612;2023-12-28T10:08:51;10.60;99.90
1107;DHT22;540;49.448;8.612;2023-12-28T10:11:20;10.50;99.90
1107;DHT22;540;49.448;8.612;2023-12-28T10:13:49;10.60;99.90
1107;DHT22;540;49.448;8.612;2023-12-28T10:16:17;10.50;99.90
1107;DHT22;540;49.448;8.612;2023-12-28T10:18:45;10.80;99.90
1107;DHT22;540;49.448;8.612;2023-12-28T10:21:13;10.60;99.90
1107;DHT22;540;49.448;8.612;2023-12-28T10:23:41;10.90;99.90
1107;DHT22;540;49.448;8.612;2023-12-28T10:26:09;10.40;99.90
1107;DHT22;540;49.448;8.612;2023-12-28T10:28:38;10.50;99.90
1107;DHT22;540;49.448;8.612;2023-12-28T10:31:07;10.30;99.90
1107;DHT22;540;49.448;8.612;2023-12-28T10:33:36;10.80;99.90
1107;DHT22;540;49.448;8.612;2023-12-28T10:36:06;10.40;99.90
1107;DHT22;540;49.448;8.612;2023-12-28T10:38:36;10.40;99.90
1107;DHT22;540;49.448;8.612;2023-12-28T10:41:06;10.60;99.90
1107;DHT22;540;49.448;8.612;2023-12-28T10:43:41;10.30;99.90
1107;DHT22;540;49.448;8.612;2023-12-28T10:46:10;10.30;99.90
1107;DHT22;540;49.448;8.612;2023-12-28T10:48:41;10.60;99.90
1107;DHT22;540;49.448;8.612;2023-12-28T10:51:10;10.20;99.90
1107;DHT22;540;49.448;8.612;2023-12-28T10:53:49;10.40;99.90
1107;DHT22;540;49.448;8.612;2023-12-28T10:56:25;10.80;99.90
1107;DHT22;540;49.448;8.612;2023-12-28T10:59:03;10.40;99.90
1107;DHT22;540;49.448;8.612;2023-12-28T11:01:37;10.60;99.90
1107;DHT22;540;49.448;8.612;2023-12-28T11:04:10;10.70;99.90
1107;DHT22;540;49.448;8.612;2023-12-28T11:06:41;10.50;99.90
1107;DHT22;540;49.448;8.612;2023-12-28T11:09:24;10.20;99.90
1107;DHT22;540;49.448;8.612;2023-12-28T11:11:55;10.40;99.90
1107;DHT22;540;49.448;8.612;2023-12-28T11:14:27;10.40;99.90
1107;DHT22;540;49.448;8.612;2023-12-28T11:16:55;10.60;99.90
1107;DHT22;540;49.448;8.612;2023-12-28T11:19:27;10.10;99.90
1107;DHT22;540;49.448;8.612;2023-12-28T11:21:56;10.40;99.90
1107;DHT22;540;49.448;8.612;2023-12-28T11:24:27;10.60;99.90
1107;DHT22;540;49.448;8.612;2023-12-28T11:26:56;10.20;99.90
1107;DHT22;540;49.448;8.612;2023-12-28T11:29:24;10.20;99.90
1107;DHT22;540;49.448;8.612;2023-12-28T11:31:54;10.20;99.90
1107;DHT22;540;49.448;8.612;2023-12-28T11:34:25;10.50;99.90
1107;DHT22;540;49.448;8.612;2023-12-28T11:36:56;10.30;99.90
1107;DHT22;540;49.448;8.612;2023-12-28T11:39:31;10.00;99.90
1107;DHT22;540;49.448;8.612;2023-12-28T11:42:09;10.00;99.90
1107;DHT22;540;49.448;8.612;2023-12-28T11:44:39;10.10;99.90
1107;DHT22;540;49.448;8.612;2023-12-28T11:47:12;10.00;99.90
1107;DHT22;540;49.448;8.612;2023-12-28T11:49:40;10.00;99.90
1107;DHT22;540;49.448;8.612;2023-12-28T11:52:22;9.90;99.90
1107;DHT22;540;49.448;8.612;2023-12-28T11:54:51;10.00;99.90
1107;DHT22;540;49.448;8.612;2023-12-28T11:57:19;10.10;99.90
1107;DHT22;540;49.448;8.612;2023-12-28T11:59:52;10.00;99.90
1107;DHT22;540;49.448;8.612;2023-12-28T12:02:22;10.20;99.90
1107;DHT22;540;49.448;8.612;2023-12-28T12:04:53;9.80;99.90
1107;DHT22;540;49.448;8.612;2023-12-28T12:07:23;9.80;99.90
1107;DHT22;540;49.448;8.612;2023-12-28T12:09:55;9.90;99.90
1107;DHT22;540;49.448;8.612;2023-12-28T12:12:28;9.70;99.90
1107;DHT22;540;49.448;8.612;2023-12-28T12:14:57;9.80;99.90
1107;DHT22;540;49.448;8.612;2023-12-28T12:17:26;9.60;99.90
1107;DHT22;540;49.448;8.612;2023-12-28T12:19:55;9.60;99.90
1107;DHT22;540;49.448;8.612;2023-12-28T12:22:25;9.40;99.90
1107;DHT22;540;49.448;8.612;2023-12-28T12:24:56;9.40;99.90
1107;DHT22;540;49.448;8.612;2023-12-28T12:27:27;9.40;99.90
1107;DHT22;540;49.448;8.612;2023-12-28T12:29:55;9.60;99.90
1107;DHT22;540;49.448;8.612;2023-12-28T12:32:23;9.20;99.90
1107;DHT22;540;49.448;8.612;2023-12-28T12:34:53;9.40;99.90
1107;DHT22;540;49.448;8.612;2023-12-28T12:37:21;9.10;99.90
1107;DHT22;540;49.448;8.612;2023-12-28T12:39:50;9.20;99.90
1107;DHT22;540;49.448;8.612;2023-12-28T12:42:18;9.30;99.90
1107;DHT22;540;49.448;8.612;2023-12-28T12:44:47;9.40;99.90
1107;DHT22;540;49.448;8.612;2023-12-28T12:47:15;9.50;99.90
1107;DHT22;540;49.448;8.612;2023-12-28T12:49:43;9.30;99.90
1107;DHT22;540;49.448;8.612;2023-12-28T12:52:12;9.20;99.90
1107;DHT22;540;49.448;8.612;2023-12-28T12:54:40;9.20;99.90
1107;DHT22;540;49.448;8.612;2023-12-28T12:57:08;9.20;99.90
1107;DHT22;540;49.448;8.612;2023-12-28T12:59:36;9.40;99.90
1107;DHT22;540;49.448;8.612;2023-12-28T13:02:07;9.30;99.90
1107;DHT22;540;49.448;8.612;2023-12-28T13:04:35;9.40;99.90
1107;DHT22;540;49.448;8.612;2023-12-28T13:07:05;9.30;99.90
1107;DHT22;540;49.448;8.612;2023-12-28T13:09:35;9.40;99.90
1107;DHT22;540;49.448;8.612;2023-12-28T13:12:03;9.20;99.90
1107;DHT22;540;49.448;8.612;2023-12-28T13:14:31;9.50;99.90
1107;DHT22;540;49.448;8.612;2023-12-28T13:16:59;9.30;99.90
1107;DHT22;540;49.448;8.612;2023-12-28T13:19:27;9.40;99.90
1107;DHT22;540;49.448;8.612;2023-12-28T13:21:55;9.50;99.90
1107;DHT22;540;49.448;8.612;2023-12-28T13:24:23;9.50;99.90
1107;DHT22;540;49.448;8.612;2023-12-28T13:26:52;9.50;99.90
1107;DHT22;540;49.448;8.612;2023-12-28T13:29:20;9.30;99.90
1107;DHT22;540;49.448;8.612;2023-12-28T13:31:48;9.40;99.90
1107;DHT22;540;49.448;8.612;2023-12-28T13:34:17;9.70;99.90
1107;DHT22;540;49.448;8.612;2023-12-28T13:36:46;9.50;99.90
1107;DHT22;540;49.448;8.612;2023-12-28T13:39:14;9.40;99.90
1107;DHT22;540;49.448;8.612;2023-12-28T13:41:44;9.40;99.90
1107;DHT22;540;49.448;8.612;2023-12-28T13:44:13;9.50;99.90
1107;DHT22;540;49.448;8.612;2023-12-28T13:46:41;9.60;99.90
1107;DHT22;540;49.448;8.612;2023-12-28T13:49:09;9.50;99.90
1107;DHT22;540;49.448;8.612;2023-12-28T13:51:37;9.60;99.90
1107;DHT22;540;49.448;8.612;2023-12-28T13:54:05;9.50;99.90
1107;DHT22;540;49.448;8.612;2023-12-28T13:56:33;9.20;99.90
1107;DHT22;540;49.448;8.612;2023-12-28T13:59:00;9.50;99.90
1107;DHT22;540;49.448;8.612;2023-12-28T14:01:30;9.80;99.90
1107;DHT22;540;49.448;8.612;2023-12-28T14:03:58;9.30;99.90
1107;DHT22;540;49.448;8.612;2023-12-28T14:06:26;9.50;99.90
1107;DHT22;540;49.448;8.612;2023-12-28T14:08:54;9.40;99.90
1107;DHT22;540;49.448;8.612;2023-12-28T14:11:23;9.50;99.90
1107;DHT22;540;49.448;8.612;2023-12-28T14:13:51;9.50;99.90
1107;DHT22;540;49.448;8.612;2023-12-28T14:16:18;9.50;99.90
1107;DHT22;540;49.448;8.612;2023-12-28T14:18:48;9.60;99.90
1107;DHT22;540;49.448;8.612;2023-12-28T14:21:16;9.80;99.90
1107;DHT22;540;49.448;8.612;2023-12-28T14:23:44;9.70;99.90
1107;DHT22;540;49.448;8.612;2023-12-28T14:26:13;9.60;99.90
1107;DHT22;540;49.448;8.612;2023-12-28T14:28:42;9.80;99.90
1107;DHT22;540;49.448;8.612;2023-12-28T14:31:11;9.60;99.90
1107;DHT22;540;49.448;8.612;2023-12-28T14:33:40;10.10;99.90
1107;DHT22;540;49.448;8.612;2023-12-28T14:36:16;10.00;99.90
1107;DHT22;540;49.448;8.612;2023-12-28T14:38:48;9.80;99.90
1107;DHT22;540;49.448;8.612;2023-12-28T14:41:15;9.80;99.90
1107;DHT22;540;49.448;8.612;2023-12-28T14:43:43;9.80;99.90
1107;DHT22;540;49.448;8.612;2023-12-28T14:46:11;10.10;99.90
1107;DHT22;540;49.448;8.612;2023-12-28T14:48:39;9.70;99.90
1107;DHT22;540;49.448;8.612;2023-12-28T14:51:07;9.70;99.90
1107;DHT22;540;49.448;8.612;2023-12-28T14:53:36;9.60;99.90
1107;DHT22;540;49.448;8.612;2023-12-28T14:56:04;9.60;99.90
1107;DHT22;540;49.448;8.612;2023-12-28T14:58:32;9.90;99.90
1107;DHT22;540;49.448;8.612;2023-12-28T15:01:00;9.70;99.90
1107;DHT22;540;49.448;8.612;2023-12-28T15:03:28;9.80;99.90
1107;DHT22;540;49.448;8.612;2023-12-28T15:05:56;9.60;99.90
1107;DHT22;540;49.448;8.612;2023-12-28T15:08:25;9.60;99.90
1107;DHT22;540;49.448;8.612;2023-12-28T15:10:54;10.00;99.90
1107;DHT22;540;49.448;8.612;2023-12-28T15:13:22;9.70;99.90
1107;DHT22;540;49.448;8.612;2023-12-28T15:15:51;9.90;99.90
1107;DHT22;540;49.448;8.612;2023-12-28T15:18:20;9.70;99.90
1107;DHT22;540;49.448;8.612;2023-12-28T15:20:49;9.70;99.90
1107;DHT22;540;49.448;8.612;2023-12-28T15:23:17;9.80;99.90
1107;DHT22;540;49.448;8.612;2023-12-28T15:25:46;9.80;99.90
1107;DHT22;540;49.448;8.612;2023-12-28T15:28:15;9.70;99.90
1107;DHT22;540;49.448;8.612;2023-12-28T15:30:44;9.70;99.90
1107;DHT22;540;49.448;8.612;2023-12-28T15:33:12;9.50;99.90
1107;DHT22;540;49.448;8.612;2023-12-28T15:35:40;9.50;99.90
1107;DHT22;540;49.448;8.612;2023-12-28T15:38:08;9.40;99.90
1107;DHT22;540;49.448;8.612;2023-12-28T15:40:36;9.40;99.90
1107;DHT22;540;49.448;8.612;2023-12-28T15:43:04;9.70;99.90
1107;DHT22;540;49.448;8.612;2023-12-28T15:45:33;9.30;99.90
1107;DHT22;540;49.448;8.612;2023-12-28T15:48:01;9.10;99.90
1107;DHT22;540;49.448;8.612;2023-12-28T15:50:30;9.20;99.90
1107;DHT22;540;49.448;8.612;2023-12-28T15:52:57;9.40;99.90
1107;DHT22;540;49.448;8.612;2023-12-28T15:55:25;9.60;99.90
1107;DHT22;540;49.448;8.612;2023-12-28T15:57:53;9.30;99.90
1107;DHT22;540;49.448;8.612;2023-12-28T16:00:21;9.20;99.90
1107;DHT22;540;49.448;8.612;2023-12-28T16:02:51;9.10;99.90
1107;DHT22;540;49.448;8.612;2023-12-28T16:05:18;9.20;99.90
1107;DHT22;540;49.448;8.612;2023-12-28T16:07:46;8.60;99.90
1107;DHT22;540;49.448;8.612;2023-12-28T16:10:14;9.30;99.90
1107;DHT22;540;49.448;8.612;2023-12-28T16:12:42;9.10;99.90
1107;DHT22;540;49.448;8.612;2023-12-28T16:15:11;9.00;99.90
1107;DHT22;540;49.448;8.612;2023-12-28T16:17:40;9.00;99.90
1107;DHT22;540;49.448;8.612;2023-12-28T16:20:11;9.00;99.90
1107;DHT22;540;49.448;8.612;2023-12-28T16:22:40;9.10;99.90
1107;DHT22;540;49.448;8.612;2023-12-28T16:25:08;9.30;99.90
1107;DHT22;540;49.448;8.612;2023-12-28T16:27:37;9.30;99.90
1107;DHT22;540;49.448;8.612;2023-12-28T16:30:08;9.20;99.90
1107;DHT22;540;49.448;8.612;2023-12-28T16:32:36;9.40;99.90
1107;DHT22;540;49.448;8.612;2023-12-28T16:35:05;9.40;99.90
1107;DHT22;540;49.448;8.612;2023-12-28T16:37:35;9.50;99.90
1107;DHT22;540;49.448;8.612;2023-12-28T16:40:03;9.30;99.90